Time;durP1;ratioP1;P1;durP2;ratioP2;P2;SDS_P1;SDS_P2;PMS_P1;PMS_P2;Temp;Humidity;BMP_temperature;BMP_pressure;BME280_temperature;BME280_humidity;BME280_pressure;Samples;Min_cycle;Max_cycle;Signal;HPM_P1;HPM_P2
2022/05/07 00:01:59;;;;;;;;;5.00;5.00;;;;;17.60;47.61;101749.50;6306162;22;45462;-79
2022/05/07 00:04:24;;;;;;;;;6.00;5.25;;;;;17.48;48.00;101731.09;6308228;22;46291;-78
2022/05/07 00:06:49;;;;;;;;;7.25;5.00;;;;;17.43;48.16;101736.78;6310699;22;45647;-78
2022/05/07 00:09:15;;;;;;;;;8.50;7.50;;;;;17.40;48.39;101741.47;6311115;22;45890;-78
2022/05/07 00:11:41;;;;;;;;;8.75;6.25;;;;;17.26;49.13;101732.00;6311590;22;45487;-77
2022/05/07 00:14:07;;;;;;;;;6.75;6.00;;;;;17.18;48.95;101726.47;6311377;22;46593;-77
2022/05/07 00:19:54;;;;;;;;;9.00;8.00;;;;;17.01;49.57;101719.88;6309594;22;45767;-78
2022/05/07 00:22:20;;;;;;;;;7.00;6.25;;;;;16.90;49.70;101727.00;6310699;22;45617;-79
2022/05/07 00:24:45;;;;;;;;;9.00;8.75;;;;;16.81;49.95;101730.38;6310830;22;45556;-76
2022/05/07 00:27:13;;;;;;;;;8.75;7.25;;;;;16.70;50.76;101718.00;6310855;22;45489;-77
2022/05/07 00:29:39;;;;;;;;;8.00;7.50;;;;;16.70;51.14;101725.94;6309849;22;45577;-77
2022/05/07 00:35:26;;;;;;;;;9.75;8.25;;;;;16.64;50.56;101726.41;6308892;22;46114;-78
2022/05/07 00:37:51;;;;;;;;;7.75;7.25;;;;;16.56;51.09;101712.94;6305592;22;46368;-78
2022/05/07 00:40:17;;;;;;;;;10.00;7.75;;;;;16.50;51.62;101714.25;6305925;22;45742;-77
2022/05/07 00:42:42;;;;;;;;;9.25;7.00;;;;;16.47;51.28;101714.47;6309944;22;45571;-79
2022/05/07 00:45:08;;;;;;;;;8.25;7.25;;;;;16.50;51.57;101721.34;6309986;22;46493;-77
2022/05/07 00:47:34;;;;;;;;;9.25;8.00;;;;;16.39;51.56;101716.91;6282838;22;46206;-77
2022/05/07 00:52:48;;;;;;;;;11.00;10.25;;;;;16.33;51.93;101710.28;6311193;22;45534;-77
2022/05/07 00:55:14;;;;;;;;;9.25;9.00;;;;;16.28;52.56;101707.16;6310560;22;46713;-79
2022/05/07 00:57:40;;;;;;;;;10.00;9.00;;;;;16.28;52.35;101701.84;6309668;22;46250;-78
2022/05/07 01:00:06;;;;;;;;;10.00;10.00;;;;;16.26;52.21;101702.94;6309107;22;45440;-79
2022/05/07 01:05:54;;;;;;;;;9.75;9.00;;;;;16.21;53.06;101719.16;6304803;22;45486;-78
2022/05/07 01:08:25;;;;;;;;;10.50;8.00;;;;;16.18;52.49;101713.25;6305055;22;45550;-79
2022/05/07 01:10:51;;;;;;;;;11.75;9.75;;;;;16.15;52.61;101708.19;6304696;22;45553;-78
2022/05/07 01:13:17;;;;;;;;;12.00;8.75;;;;;16.12;52.86;101708.44;6304508;22;45573;-78
2022/05/07 01:15:48;;;;;;;;;5.75;5.00;;;;;16.09;53.01;101712.16;6304407;22;45405;-76
2022/05/07 01:18:15;;;;;;;;;13.50;9.00;;;;;16.02;52.77;101697.75;6304947;22;45619;-78
2022/05/07 01:20:42;;;;;;;;;12.50;11.00;;;;;16.08;53.06;101701.72;6303527;22;45522;-77
2022/05/07 01:23:08;;;;;;;;;7.50;7.50;;;;;16.07;53.11;101706.16;6304525;22;45402;-77
2022/05/07 01:25:34;;;;;;;;;11.75;9.00;;;;;16.05;53.06;101708.06;6277529;22;47259;-77
2022/05/07 01:27:59;;;;;;;;;12.00;11.50;;;;;15.88;53.25;101690.00;6305081;22;46468;-77
2022/05/07 01:30:25;;;;;;;;;13.75;12.75;;;;;15.93;53.57;101698.41;6305089;22;45508;-77
2022/05/07 01:36:16;;;;;;;;;12.25;11.25;;;;;15.86;53.46;101713.06;6306031;22;45446;-77
2022/05/07 01:38:41;;;;;;;;;12.50;11.50;;;;;15.74;54.14;101706.06;6308080;22;45711;-77
2022/05/07 01:41:07;;;;;;;;;9.75;8.00;;;;;15.66;54.13;101698.69;6309494;22;45541;-78
2022/05/07 01:43:32;;;;;;;;;13.25;11.25;;;;;15.63;54.06;101698.94;6308747;22;45740;-78
2022/05/07 01:46:01;;;;;;;;;10.50;9.00;;;;;15.52;54.36;101697.09;6306054;22;45710;-78
2022/05/07 01:48:27;;;;;;;;;14.50;13.00;;;;;15.53;54.20;101701.44;6306384;22;45718;-78
2022/05/07 01:50:53;;;;;;;;;10.75;9.75;;;;;15.46;54.56;101705.44;6308298;22;45437;-78
2022/05/07 01:53:18;;;;;;;;;11.00;10.75;;;;;15.44;54.82;101702.06;6309892;22;45541;-77
2022/05/07 01:55:44;;;;;;;;;8.00;8.00;;;;;15.43;54.90;101705.69;6307690;22;45453;-78
2022/05/07 01:58:10;;;;;;;;;9.75;9.25;;;;;15.41;55.05;101698.81;6306300;22;45513;-77
2022/05/07 02:00:35;;;;;;;;;13.75;12.75;;;;;15.31;55.15;101690.75;6307321;22;45455;-77
2022/05/07 02:06:23;;;;;;;;;12.50;10.00;;;;;15.32;55.21;101687.16;6304691;22;45502;-78
2022/05/07 02:08:48;;;;;;;;;9.00;8.50;;;;;15.33;55.62;101695.91;6307113;22;45685;-78
2022/05/07 02:11:13;;;;;;;;;15.00;13.00;;;;;15.28;55.18;101679.53;6305277;22;45530;-77
2022/05/07 02:13:39;;;;;;;;;11.75;11.00;;;;;15.27;55.94;101696.34;6304255;22;45426;-76
2022/05/07 02:16:04;;;;;;;;;12.00;11.00;;;;;15.29;55.57;101694.44;6303286;22;46404;-76
2022/05/07 02:18:30;;;;;;;;;16.50;13.00;;;;;15.21;55.84;101686.25;6303395;22;45616;-77
2022/05/07 02:20:56;;;;;;;;;13.25;12.00;;;;;15.23;55.51;101679.03;6302607;22;45577;-76
2022/05/07 02:23:22;;;;;;;;;12.00;11.50;;;;;15.24;55.77;101683.38;6274957;22;45901;-77
2022/05/07 02:25:47;;;;;;;;;11.75;9.50;;;;;15.23;55.58;101689.59;6303342;22;45497;-77
2022/05/07 02:28:14;;;;;;;;;14.00;13.00;;;;;15.23;55.85;101702.78;6303000;22;46033;-78
2022/05/07 02:30:39;;;;;;;;;10.25;9.25;;;;;15.17;55.84;101695.34;6303175;22;45455;-76
2022/05/07 02:36:26;;;;;;;;;11.25;9.50;;;;;15.14;55.72;101693.75;6302791;22;45502;-77
2022/05/07 02:38:52;;;;;;;;;11.00;10.00;;;;;15.07;56.34;101687.22;6302747;22;46176;-78
2022/05/07 02:44:02;;;;;;;;;12.25;10.25;;;;;14.97;56.53;101691.50;6303012;22;45513;-77
2022/05/07 02:46:28;;;;;;;;;10.00;10.00;;;;;14.94;56.64;101689.09;6303112;22;46790;-77
2022/05/07 02:48:53;;;;;;;;;12.25;11.25;;;;;14.79;57.06;101675.19;6302654;22;46482;-77
2022/05/07 02:51:18;;;;;;;;;11.25;10.00;;;;;14.88;57.08;101697.44;6303002;22;45492;-77
2022/05/07 02:53:44;;;;;;;;;13.50;10.25;;;;;14.75;57.24;101684.28;6303275;22;45603;-77
2022/05/07 02:56:09;;;;;;;;;11.75;10.00;;;;;14.81;57.12;101691.75;6302722;22;46357;-77
2022/05/07 02:58:35;;;;;;;;;14.00;12.25;;;;;14.78;56.94;101685.88;6302646;22;45702;-78
2022/05/07 03:01:00;;;;;;;;;11.25;10.25;;;;;14.79;57.35;101691.00;6302859;22;45565;-77
2022/05/07 03:06:48;;;;;;;;;14.00;12.00;;;;;14.69;57.67;101684.72;6302541;22;45461;-78
2022/05/07 03:09:14;;;;;;;;;11.25;10.50;;;;;14.65;57.63;101678.81;6302561;22;45973;-77
2022/05/07 03:11:39;;;;;;;;;11.00;10.00;;;;;14.64;57.96;101676.28;6302829;22;45507;-77
2022/05/07 03:14:06;;;;;;;;;11.75;10.25;;;;;14.64;58.51;101682.41;6303246;22;45591;-78
2022/05/07 03:22:56;;;;;;;;;11.75;11.25;;;;;14.66;58.11;101674.38;6299322;22;45823;-78
2022/05/07 03:25:21;;;;;;;;;10.00;10.00;;;;;14.63;58.76;101677.22;6303811;22;45592;-77
2022/05/07 03:27:47;;;;;;;;;12.50;11.00;;;;;14.58;58.93;101681.97;6304050;22;45483;-77
2022/05/07 03:30:12;;;;;;;;;17.00;13.00;;;;;14.49;58.97;101678.22;6303764;22;45603;-77
2022/05/07 03:32:38;;;;;;;;;14.50;11.25;;;;;14.50;58.90;101701.00;6304018;22;45548;-77
2022/05/07 03:35:03;;;;;;;;;12.25;11.25;;;;;14.41;59.48;101685.84;6304098;22;45489;-77
2022/05/07 03:37:29;;;;;;;;;13.25;11.75;;;;;14.42;59.49;101694.56;6275868;22;46549;-78
2022/05/07 03:39:54;;;;;;;;;11.50;10.75;;;;;14.38;59.46;101699.22;6303680;22;45648;-77
2022/05/07 03:42:20;;;;;;;;;11.50;11.00;;;;;14.31;59.44;101674.19;6275614;22;45731;-77
2022/05/07 03:44:48;;;;;;;;;11.75;11.25;;;;;14.30;59.41;101675.16;6304088;22;45685;-77
2022/05/07 03:47:14;;;;;;;;;13.25;10.75;;;;;14.27;59.66;101667.44;6303790;22;45459;-77
2022/05/07 03:49:39;;;;;;;;;15.75;13.25;;;;;14.27;59.91;101678.00;6303558;22;46140;-78
2022/05/07 03:54:49;;;;;;;;;12.50;12.00;;;;;14.08;60.70;101674.94;6303809;22;45653;-77
2022/05/07 03:57:16;;;;;;;;;12.25;12.00;;;;;14.05;60.91;101676.00;6303737;22;45807;-77
2022/05/07 03:59:42;;;;;;;;;13.75;12.00;;;;;14.05;61.27;101670.72;6303507;22;46139;-78
2022/05/07 04:02:08;;;;;;;;;13.25;10.50;;;;;14.03;61.34;101661.25;6303712;22;45821;-77
2022/05/07 04:04:33;;;;;;;;;16.75;12.00;;;;;14.07;60.71;101666.19;6303917;22;45692;-78
2022/05/07 04:06:59;;;;;;;;;15.25;14.00;;;;;14.06;60.77;101667.13;6303767;22;46584;-78
2022/05/07 04:09:25;;;;;;;;;18.50;15.00;;;;;14.02;61.53;101662.19;6303432;22;45976;-78
2022/05/07 04:11:50;;;;;;;;;16.75;12.75;;;;;14.03;61.32;101671.78;6304015;22;45625;-78
2022/05/07 04:14:16;;;;;;;;;18.75;15.25;;;;;13.98;61.28;101658.91;6304053;22;45479;-76
2022/05/07 04:16:41;;;;;;;;;18.00;17.50;;;;;13.97;61.53;101659.88;6276218;22;45800;-76
2022/05/07 04:22:32;;;;;;;;;16.75;14.25;;;;;14.04;61.53;101655.84;6302144;22;45787;-76
2022/05/07 04:24:57;;;;;;;;;19.50;17.00;;;;;14.06;61.59;101672.41;6303936;22;45410;-77
2022/05/07 04:27:23;;;;;;;;;16.50;15.50;;;;;14.05;62.26;101660.19;6302999;22;45481;-77
2022/05/07 04:29:48;;;;;;;;;11.75;11.00;;;;;14.02;61.84;101656.91;6303386;22;46049;-77
2022/05/07 04:32:13;;;;;;;;;16.00;14.25;;;;;14.06;62.66;101668.94;6303364;22;45574;-77
2022/05/07 04:38:00;;;;;;;;;21.00;16.50;;;;;14.06;62.47;101672.41;6303104;22;45938;-76
2022/05/07 04:40:26;;;;;;;;;16.50;13.00;;;;;13.97;61.97;101665.16;6303165;22;45531;-78
2022/05/07 04:42:51;;;;;;;;;19.50;16.50;;;;;13.95;62.22;101667.03;6303724;22;45781;-78
2022/05/07 04:45:16;;;;;;;;;21.00;17.00;;;;;13.98;62.71;101664.16;6303716;22;45468;-78
2022/05/07 04:47:42;;;;;;;;;26.00;16.50;;;;;13.96;62.54;101670.50;6303468;22;45468;-77
2022/05/07 04:50:08;;;;;;;;;17.50;14.00;;;;;13.87;62.62;101664.09;6303422;22;45973;-78
2022/05/07 04:52:33;;;;;;;;;16.25;11.75;;;;;13.90;62.62;101671.78;6302957;22;45386;-78
2022/05/07 04:55:00;;;;;;;;;17.75;14.00;;;;;13.87;62.35;101677.25;6303808;22;45649;-78
2022/05/07 04:57:26;;;;;;;;;18.25;18.00;;;;;13.80;62.50;101670.72;6303711;22;46572;-78
2022/05/07 04:59:51;;;;;;;;;19.25;18.00;;;;;13.83;62.17;101675.75;6303224;22;46465;-77
2022/05/07 05:02:20;;;;;;;;;19.75;17.75;;;;;13.67;62.79;101646.97;6303506;22;45553;-80
2022/05/07 05:08:07;;;;;;;;;17.00;14.00;;;;;13.80;62.94;101662.81;6303236;22;45544;-78
2022/05/07 05:10:32;;;;;;;;;18.25;15.75;;;;;13.81;63.07;101667.13;6302898;22;46161;-77
2022/05/07 05:12:58;;;;;;;;;19.00;15.25;;;;;13.81;63.26;101661.88;6302996;22;45494;-76
2022/05/07 05:15:23;;;;;;;;;19.25;17.75;;;;;13.84;63.55;101662.50;6303533;22;45498;-77
2022/05/07 05:17:49;;;;;;;;;19.25;17.25;;;;;13.88;63.26;101669.22;6303266;22;46673;-77
2022/05/07 05:20:15;;;;;;;;;18.50;16.50;;;;;13.87;62.79;101667.53;6303245;22;46114;-76
2022/05/07 05:22:50;;;;;;;;;14.00;12.50;;;;;13.92;63.51;101679.56;6302407;22;45558;-78
2022/05/07 05:25:16;;;;;;;;;21.50;16.25;;;;;13.89;63.08;101670.06;6303301;22;45503;-77
2022/05/07 05:27:42;;;;;;;;;21.00;17.25;;;;;13.90;63.26;101661.22;6303269;22;46481;-77
2022/05/07 05:30:08;;;;;;;;;17.00;15.00;;;;;13.88;63.32;101649.94;6303176;22;46275;-77
2022/05/07 05:32:33;;;;;;;;;20.25;16.75;;;;;13.93;63.57;101652.28;6303002;22;45439;-77
2022/05/07 05:38:21;;;;;;;;;18.75;18.00;;;;;14.04;63.26;101661.13;6302586;22;45949;-77
2022/05/07 05:40:46;;;;;;;;;10.50;10.25;;;;;14.09;62.83;101669.56;6303303;22;46036;-78
2022/05/07 05:43:12;;;;;;;;;16.75;14.25;;;;;14.07;63.23;101650.38;6303202;22;45458;-77
2022/05/07 05:45:37;;;;;;;;;18.75;16.25;;;;;14.08;63.23;101657.34;6303554;22;45395;-78
2022/05/07 05:48:04;;;;;;;;;17.25;15.00;;;;;14.15;63.11;101668.28;6302892;22;45574;-78
2022/05/07 05:53:51;;;;;;;;;18.00;14.25;;;;;14.21;62.99;101675.78;6302935;22;45511;-78
2022/05/07 05:56:16;;;;;;;;;15.50;13.00;;;;;14.21;62.91;101665.22;6303722;22;45653;-81
2022/05/07 05:58:42;;;;;;;;;19.25;16.50;;;;;14.23;62.83;101664.19;6302635;22;46791;-83
2022/05/07 06:01:07;;;;;;;;;20.75;17.00;;;;;14.25;63.19;101664.91;6302875;22;46211;-82
2022/05/07 06:03:33;;;;;;;;;20.00;17.25;;;;;14.29;62.71;101669.03;6302089;22;45578;-81
2022/05/07 06:06:00;;;;;;;;;18.75;17.50;;;;;14.33;62.93;101674.94;6303581;22;45344;-82
2022/05/07 06:08:25;;;;;;;;;20.00;16.00;;;;;14.26;62.89;101653.41;6303284;22;45604;-82
2022/05/07 06:10:52;;;;;;;;;21.00;18.00;;;;;14.41;62.46;101655.97;6303748;22;45509;-82
2022/05/07 06:13:18;;;;;;;;;19.25;17.50;;;;;14.36;62.80;101645.69;6303556;22;45655;-80
2022/05/07 06:15:45;;;;;;;;;16.00;13.50;;;;;14.48;62.59;101658.06;6303847;22;45659;-81
2022/05/07 06:18:11;;;;;;;;;18.75;14.75;;;;;14.58;62.30;101668.78;6303413;22;45720;-82
2022/05/07 06:27:28;;;;;;;;;17.00;16.25;;;;;14.68;62.06;101669.84;6296167;22;45668;-79
2022/05/07 06:29:30;;;;;;;;;22.75;20.00;;;;;14.75;62.28;101683.44;6304027;22;45378;-82
2022/05/07 06:31:56;;;;;;;;;17.25;15.00;;;;;14.73;62.56;101686.19;6302877;22;46470;-83
2022/05/07 06:34:23;;;;;;;;;15.00;15.00;;;;;14.72;62.15;101688.94;6302753;22;45547;-80
2022/05/07 06:36:49;;;;;;;;;21.00;16.25;;;;;14.73;62.50;101694.13;6275093;22;45398;-82
2022/05/07 06:39:17;;;;;;;;;19.00;15.75;;;;;14.67;62.64;101695.38;6274115;22;46354;-81
2022/05/07 06:41:42;;;;;;;;;16.00;15.00;;;;;14.68;62.23;101704.16;6302833;22;45961;-82
2022/05/07 06:44:08;;;;;;;;;22.50;19.75;;;;;14.61;62.21;101716.91;6274011;22;45613;-80
2022/05/07 06:46:33;;;;;;;;;22.50;19.25;;;;;14.59;62.76;101720.59;6303065;22;45598;-83
2022/05/07 06:48:59;;;;;;;;;23.50;20.25;;;;;14.51;63.03;101715.88;6302357;22;45606;-83
2022/05/07 06:51:24;;;;;;;;;19.25;15.75;;;;;14.44;63.18;101714.63;6302650;22;45968;-82
2022/05/07 06:53:50;;;;;;;;;27.50;22.75;;;;;14.38;63.56;101717.66;6302883;22;45607;-82
2022/05/07 06:56:15;;;;;;;;;23.75;21.25;;;;;14.29;63.38;101718.28;6302515;22;45527;-79
2022/05/07 06:58:41;;;;;;;;;21.75;19.75;;;;;14.25;63.55;101707.09;6301658;22;46545;-78
2022/05/07 07:01:07;;;;;;;;;24.50;19.75;;;;;14.32;63.95;101718.06;6301562;22;46084;-79
2022/05/07 07:03:33;;;;;;;;;28.75;22.75;;;;;14.37;63.53;101725.69;6301775;22;45390;-79
2022/05/07 07:09:20;;;;;;;;;18.25;16.25;;;;;14.32;64.20;101709.31;6301154;22;45880;-78
2022/05/07 07:11:46;;;;;;;;;18.75;16.50;;;;;14.35;64.10;101714.38;6301705;22;46396;-78
2022/05/07 07:14:12;;;;;;;;;22.25;20.00;;;;;14.35;63.80;101717.88;6301587;22;45535;-79
2022/05/07 07:16:37;;;;;;;;;23.50;18.50;;;;;14.33;63.75;101716.25;6300353;22;45542;-81
2022/05/07 07:19:04;;;;;;;;;19.00;15.50;;;;;14.23;63.93;101708.16;6300679;22;46873;-79
2022/05/07 07:24:51;;;;;;;;;21.00;17.75;;;;;14.22;64.24;101715.22;6295537;22;45981;-78
2022/05/07 07:27:16;;;;;;;;;18.25;13.50;;;;;14.25;64.18;101714.19;6301464;22;45610;-78
2022/05/07 07:29:44;;;;;;;;;23.25;20.75;;;;;14.24;64.06;101699.31;6300561;22;45496;-77
2022/05/07 07:32:09;;;;;;;;;20.75;19.75;;;;;14.35;64.18;101717.88;6301206;22;46361;-77
2022/05/07 07:34:35;;;;;;;;;17.50;17.00;;;;;14.33;64.48;101709.22;6301552;22;45631;-78
2022/05/07 07:37:00;;;;;;;;;21.25;18.75;;;;;14.43;64.21;101709.44;6273015;22;45560;-81
2022/05/07 07:39:26;;;;;;;;;21.25;16.75;;;;;14.48;63.75;101708.16;6301169;22;45579;-77
2022/05/07 07:41:51;;;;;;;;;20.75;19.50;;;;;14.61;63.87;101708.16;6273306;22;46324;-78
2022/05/07 07:44:16;;;;;;;;;19.50;16.75;;;;;14.64;63.54;101710.56;6300834;22;45553;-79
2022/05/07 07:49:26;;;;;;;;;20.75;16.50;;;;;14.83;63.18;101710.97;6297236;22;45798;-79
2022/05/07 07:55:13;;;;;;;;;18.25;15.50;;;;;15.03;63.10;101712.16;6299541;22;45821;-78
2022/05/07 07:57:38;;;;;;;;;23.50;19.00;;;;;15.08;62.83;101720.59;6299845;22;45873;-79
2022/05/07 08:00:04;;;;;;;;;21.00;17.25;;;;;15.16;62.39;101723.53;6299637;22;45552;-80
2022/05/07 08:02:30;;;;;;;;;15.75;15.00;;;;;15.22;62.47;101719.63;6301431;22;46099;-78
2022/05/07 08:04:57;;;;;;;;;18.75;15.75;;;;;15.22;62.40;101717.81;6296325;22;45565;-78
2022/05/07 08:13:05;;;;;;;;;22.50;17.50;;;;;15.38;61.85;101712.25;6249267;22;46074;-78
2022/05/07 08:15:30;;;;;;;;;20.25;15.00;;;;;15.46;61.90;101713.38;6274168;22;45434;-78
2022/05/07 08:17:55;;;;;;;;;18.50;14.25;;;;;15.41;61.80;101694.38;6302224;22;45406;-81
2022/05/07 08:20:22;;;;;;;;;21.75;17.75;;;;;15.52;61.86;101698.91;6301870;22;45535;-78
2022/05/07 08:22:48;;;;;;;;;18.75;17.75;;;;;15.60;61.98;101711.56;6301961;22;45487;-80
2022/05/07 08:25:13;;;;;;;;;17.75;16.50;;;;;15.63;61.60;101706.03;6301246;22;45643;-80
2022/05/07 08:27:39;;;;;;;;;19.00;16.50;;;;;15.56;61.40;101692.44;6301436;22;45735;-78
2022/05/07 08:30:05;;;;;;;;;20.00;18.00;;;;;15.66;61.45;101696.06;6301843;22;45522;-79
2022/05/07 08:32:30;;;;;;;;;18.50;17.25;;;;;15.74;61.38;101706.06;6273738;22;46870;-79
2022/05/07 08:34:55;;;;;;;;;16.50;15.25;;;;;15.80;61.33;101714.38;6301866;22;45636;-79
2022/05/07 08:40:43;;;;;;;;;16.25;15.00;;;;;15.91;61.10;101708.28;6302688;22;45534;-78
2022/05/07 08:43:09;;;;;;;;;20.75;18.25;;;;;15.95;60.96;101705.28;6302959;22;45968;-77
2022/05/07 08:45:35;;;;;;;;;17.50;15.25;;;;;16.03;60.67;101709.16;6302327;22;45556;-77
2022/05/07 08:48:01;;;;;;;;;22.25;17.50;;;;;16.06;60.83;101711.56;6274953;22;45705;-77
2022/05/07 08:50:27;;;;;;;;;20.00;17.25;;;;;16.11;60.70;101709.41;6302933;22;45801;-77
2022/05/07 08:56:15;;;;;;;;;16.00;15.00;;;;;16.25;60.48;101711.81;6301791;22;45533;-77
2022/05/07 08:58:52;;;;;;;;;16.00;15.50;;;;;16.30;60.16;101696.47;6301935;22;45436;-78
2022/05/07 09:01:18;;;;;;;;;19.75;18.00;;;;;16.39;60.17;101706.31;6302759;22;45546;-77
2022/05/07 09:03:47;;;;;;;;;17.75;17.50;;;;;16.46;59.61;101706.69;6303025;22;45581;-78
2022/05/07 09:06:16;;;;;;;;;19.00;16.50;;;;;16.56;59.63;101703.19;6302886;22;45408;-81
2022/05/07 09:08:44;;;;;;;;;17.75;15.75;;;;;16.56;59.37;101695.25;6302991;22;45517;-79
2022/05/07 09:11:10;;;;;;;;;19.25;17.00;;;;;16.60;59.51;101701.19;6302888;22;45595;-78
2022/05/07 09:13:36;;;;;;;;;21.25;19.00;;;;;16.62;59.38;101696.63;6302846;22;45460;-79
2022/05/07 09:16:02;;;;;;;;;17.75;13.75;;;;;16.73;59.29;101694.78;6303032;22;45428;-79
2022/05/07 09:18:31;;;;;;;;;17.25;16.25;;;;;16.80;58.96;101700.44;6296440;22;45490;-77
2022/05/07 09:21:16;;;;;;;;;19.25;16.50;;;;;16.83;59.06;101697.56;6300675;22;45611;-77
2022/05/07 09:24:10;;;;;;;;;16.75;16.25;;;;;16.89;59.01;101691.78;6299661;22;46184;-76
2022/05/07 09:26:40;;;;;;;;;15.50;14.75;;;;;16.97;58.92;101696.44;6241288;22;45709;-75
2022/05/07 09:29:18;;;;;;;;;16.75;16.00;;;;;17.02;59.05;101696.91;6270615;22;45459;-78
2022/05/07 09:31:44;;;;;;;;;15.00;14.75;;;;;17.05;58.46;101684.28;6271409;22;45601;-75
2022/05/07 09:36:55;;;;;;;;;20.25;15.00;;;;;17.20;58.24;101682.19;6270958;22;45743;-77
2022/05/07 09:39:20;;;;;;;;;17.00;14.00;;;;;17.25;58.07;101684.44;6271484;22;45803;-76
2022/05/07 09:41:54;;;;;;;;;17.50;15.50;;;;;17.30;58.31;101671.66;6271649;22;45509;-78
2022/05/07 09:44:24;;;;;;;;;18.00;15.50;;;;;17.43;58.22;101680.28;6271654;22;46299;-78
2022/05/07 09:46:49;;;;;;;;;14.50;13.00;;;;;17.50;57.42;101679.63;6272051;22;45504;-76
2022/05/07 09:49:16;;;;;;;;;16.00;14.50;;;;;17.64;57.79;101683.00;6271558;22;45411;-76
2022/05/07 09:51:43;;;;;;;;;14.75;13.75;;;;;17.65;57.05;101668.78;6272043;22;46875;-78
2022/05/07 09:59:38;;;;;;;;;17.50;15.00;;;;;18.02;56.53;101681.44;6271616;22;45888;-75
2022/05/07 10:02:41;;;;;;;;;14.50;13.00;;;;;18.14;56.16;101671.56;6271671;22;45537;-76
2022/05/07 10:05:30;;;;;;;;;17.50;16.75;;;;;18.22;56.56;101666.47;6271550;22;45871;-75
2022/05/07 10:08:24;;;;;;;;;15.00;14.50;;;;;18.36;56.17;101676.72;6271452;22;45624;-77
2022/05/07 10:10:52;;;;;;;;;14.50;13.25;;;;;18.48;55.88;101682.78;6263764;22;45886;-74
2022/05/07 10:13:19;;;;;;;;;14.50;12.25;;;;;18.58;55.14;101685.50;6270992;22;45677;-74
2022/05/07 10:15:59;;;;;;;;;14.75;13.50;;;;;18.67;55.52;101677.59;6267400;22;46390;-76
2022/05/07 10:18:38;;;;;;;;;14.50;12.75;;;;;18.76;55.08;101676.75;6267284;22;45704;-78
2022/05/07 10:21:11;;;;;;;;;15.75;13.75;;;;;18.82;54.46;101680.69;6268781;22;45453;-79
2022/05/07 10:23:47;;;;;;;;;17.00;16.25;;;;;18.88;54.78;101684.63;6267281;22;46571;-79
2022/05/07 10:26:12;;;;;;;;;14.50;12.75;;;;;18.91;54.22;101666.59;6297028;22;46123;-79
2022/05/07 10:28:42;;;;;;;;;13.25;12.00;;;;;18.99;54.17;101682.69;6297611;22;45678;-79
2022/05/07 10:31:17;;;;;;;;;17.25;14.50;;;;;19.04;53.79;101680.47;6298472;22;45569;-82
2022/05/07 10:33:42;;;;;;;;;16.00;15.00;;;;;19.09;53.98;101672.06;6298138;22;45460;-80
2022/05/07 10:36:08;;;;;;;;;11.25;10.50;;;;;19.18;53.37;101677.41;6300176;22;46017;-79
2022/05/07 10:38:37;;;;;;;;;14.75;12.75;;;;;19.29;53.90;101679.09;6302021;22;45510;-76
2022/05/07 10:41:05;;;;;;;;;16.00;12.50;;;;;19.36;53.44;101668.75;6302170;22;45614;-76
2022/05/07 10:43:36;;;;;;;;;13.75;12.75;;;;;19.40;52.85;101670.13;6301849;22;45525;-77
2022/05/07 10:46:12;;;;;;;;;15.75;13.50;;;;;19.48;52.91;101675.63;6301855;22;46032;-78
2022/05/07 10:49:07;;;;;;;;;14.50;13.50;;;;;19.49;52.73;101667.50;6301389;22;45508;-78
2022/05/07 10:51:35;;;;;;;;;14.00;12.25;;;;;19.55;52.41;101658.97;6146456;23;45664;-79
2022/05/07 10:54:03;;;;;;;;;12.50;11.75;;;;;19.60;52.49;101662.03;6146355;23;45520;-79
2022/05/07 10:56:31;;;;;;;;;12.50;12.50;;;;;19.56;52.37;101650.00;6146168;23;46185;-80
2022/05/07 10:58:57;;;;;;;;;13.25;13.00;;;;;19.63;51.98;101655.59;6146275;23;45586;-84
2022/05/07 11:01:24;;;;;;;;;10.00;9.25;;;;;19.75;51.99;101665.13;6147385;23;45689;-83
2022/05/07 11:04:04;;;;;;;;;12.50;10.00;;;;;19.82;51.20;101660.88;6146609;23;46708;-82
2022/05/07 11:06:45;;;;;;;;;13.75;12.25;;;;;19.85;51.27;101649.13;6146953;23;46453;-80
2022/05/07 11:09:18;;;;;;;;;10.00;10.00;;;;;19.97;50.86;101655.97;6146517;23;45555;-79
2022/05/07 11:11:49;;;;;;;;;12.00;11.50;;;;;20.00;50.85;101647.69;6146805;23;45528;-80
2022/05/07 11:14:30;;;;;;;;;13.50;13.00;;;;;19.97;50.76;101640.00;6121046;23;47920;-79
2022/05/07 11:16:57;;;;;;;;;15.00;13.00;;;;;20.03;51.10;101637.59;6146476;23;46132;-79
2022/05/07 11:19:28;;;;;;;;;14.00;12.75;;;;;20.07;50.63;101640.81;6146377;23;45495;-79
2022/05/07 11:21:55;;;;;;;;;22.25;14.00;;;;;20.02;50.88;101635.09;6147556;23;45584;-78
2022/05/07 11:24:21;;;;;;;;;16.00;12.50;;;;;20.10;50.49;101643.16;6148101;23;45659;-80
2022/05/07 11:26:54;;;;;;;;;14.50;13.00;;;;;20.07;50.92;101628.34;6148031;23;45996;-77
2022/05/07 11:29:20;;;;;;;;;16.25;13.25;;;;;20.09;50.25;101625.53;6277332;22;45637;-78
2022/05/07 11:31:55;;;;;;;;;13.25;11.50;;;;;20.20;50.78;101638.66;6302265;22;45458;-78
2022/05/07 11:34:31;;;;;;;;;9.25;8.50;;;;;20.18;50.38;101640.63;6301436;22;46548;-79
2022/05/07 11:37:09;;;;;;;;;11.25;11.00;;;;;20.15;50.07;101624.09;6301014;22;45819;-81
2022/05/07 11:39:34;;;;;;;;;12.25;11.25;;;;;20.20;49.92;101629.81;6301399;22;45643;-81
2022/05/07 11:41:59;;;;;;;;;15.00;11.75;;;;;20.20;49.69;101635.16;6302254;22;45661;-78
2022/05/07 11:47:23;;;;;;;;;11.50;10.25;;;;;20.13;50.19;101631.41;6302497;22;45707;-78
2022/05/07 11:50:05;;;;;;;;;15.00;12.50;;;;;20.12;50.22;101622.59;6303409;22;45497;-77
2022/05/07 11:52:30;;;;;;;;;12.25;11.00;;;;;20.19;50.49;101638.81;6273727;22;45510;-76
2022/05/07 11:55:02;;;;;;;;;14.25;12.50;;;;;20.20;50.18;101635.16;6302493;22;45474;-76
2022/05/07 11:57:32;;;;;;;;;15.00;13.00;;;;;20.23;50.36;101629.53;6303493;22;46488;-76
2022/05/07 12:00:13;;;;;;;;;12.25;10.50;;;;;20.23;49.83;101630.38;6303777;22;45672;-75
2022/05/07 12:03:02;;;;;;;;;15.50;13.00;;;;;20.25;50.14;101630.22;6303922;22;45503;-76
2022/05/07 12:05:38;;;;;;;;;12.50;11.50;;;;;20.22;49.73;101625.19;6303847;22;45616;-76
2022/05/07 12:11:25;;;;;;;;;8.75;8.75;;;;;20.23;49.32;101624.22;6303614;22;45557;-76
2022/05/07 12:13:50;;;;;;;;;12.00;11.50;;;;;20.27;50.05;101613.13;6303988;22;45407;-76
2022/05/07 12:19:00;;;;;;;;;14.50;12.00;;;;;20.30;49.72;101618.16;6303401;22;45707;-76
2022/05/07 12:30:55;;;;;;;;;11.75;11.00;;;;;20.48;49.03;101616.41;6303006;22;45595;-77
2022/05/07 12:33:21;;;;;;;;;11.00;10.00;;;;;20.49;49.44;101603.94;6303456;22;45525;-75
2022/05/07 12:35:46;;;;;;;;;12.50;12.50;;;;;20.55;49.44;101608.69;6304233;22;45576;-75
2022/05/07 12:38:11;;;;;;;;;11.00;10.25;;;;;20.63;48.12;101616.75;6303294;22;46664;-76
2022/05/07 12:40:37;;;;;;;;;12.50;12.25;;;;;20.66;48.50;101621.78;6303446;22;45527;-76
2022/05/07 12:43:02;;;;;;;;;10.75;10.75;;;;;20.71;48.31;101611.53;6303589;22;45581;-76
2022/05/07 12:45:28;;;;;;;;;12.25;11.25;;;;;20.77;48.65;101605.59;6303551;22;45505;-76
2022/05/07 12:47:53;;;;;;;;;12.25;11.25;;;;;20.79;48.84;101603.59;6303286;22;45611;-76
2022/05/07 12:50:19;;;;;;;;;12.00;12.00;;;;;20.90;48.14;101614.03;6303511;22;46185;-76
2022/05/07 12:52:44;;;;;;;;;11.25;10.00;;;;;20.94;47.91;101612.75;6303619;22;45513;-76
2022/05/07 12:55:09;;;;;;;;;10.00;9.50;;;;;20.98;47.67;101605.31;6302889;22;45494;-76
2022/05/07 12:57:35;;;;;;;;;12.75;11.00;;;;;21.05;47.45;101610.88;6300853;22;45590;-76
2022/05/07 13:00:00;;;;;;;;;12.75;12.00;;;;;21.09;47.28;101613.06;6298186;22;46138;-76
2022/05/07 13:02:26;;;;;;;;;15.75;12.25;;;;;21.12;48.05;101603.91;6298373;22;45565;-75
2022/05/07 13:04:51;;;;;;;;;13.50;11.50;;;;;21.12;47.36;101602.09;6298795;22;45790;-76
2022/05/07 13:07:16;;;;;;;;;12.50;11.00;;;;;21.14;47.41;101599.28;6298282;22;45806;-76